Time;durP1;ratioP1;P1;durP2;ratioP2;P2;SDS_P1;SDS_P2;PMS_P1;PMS_P2;Temp;Humidity;BMP_temperature;BMP_pressure;BME280_temperature;BME280_humidity;BME280_pressure;Samples;Min_cycle;Max_cycle;Signal;HPM_P1;HPM_P2
2024/01/09 00:01:43;;;;;;;20.70;12.02;;;-5.80;99.90;;;;;;5011175;28;21066;-47
2024/01/09 00:04:13;;;;;;;21.05;12.48;;;-5.70;99.90;;;;;;5005166;28;20662;-47
2024/01/09 00:06:40;;;;;;;21.20;11.82;;;-5.80;99.90;;;;;;5009494;28;20042;-47
2024/01/09 00:09:07;;;;;;;25.52;13.18;;;-5.70;99.90;;;;;;5012616;28;20095;-47
2024/01/09 00:11:34;;;;;;;20.58;12.55;;;-5.70;99.90;;;;;;5006504;28;20435;-45
2024/01/09 00:14:01;;;;;;;22.17;12.02;;;-5.60;99.90;;;;;;5019012;28;20145;-46
2024/01/09 00:16:28;;;;;;;25.05;12.43;;;-5.60;99.90;;;;;;5010732;28;20130;-44
2024/01/09 00:18:55;;;;;;;19.67;12.20;;;-5.60;99.90;;;;;;5013205;28;20586;-46
2024/01/09 00:21:23;;;;;;;24.50;12.63;;;-5.70;99.90;;;;;;5011973;28;20042;-45
2024/01/09 00:23:50;;;;;;;24.27;12.10;;;-5.70;99.90;;;;;;5011089;28;20073;-45
2024/01/09 00:26:20;;;;;;;20.65;11.60;;;-5.70;99.90;;;;;;5013731;28;20037;-46
2024/01/09 00:28:47;;;;;;;22.25;11.43;;;-5.80;99.90;;;;;;5012521;28;20073;-43
2024/01/09 00:31:14;;;;;;;27.20;12.75;;;-5.80;99.90;;;;;;5013383;28;20141;-46
2024/01/09 00:33:41;;;;;;;19.27;11.98;;;-5.80;99.90;;;;;;5009805;28;20074;-46
2024/01/09 00:36:08;;;;;;;24.33;12.07;;;-5.80;99.90;;;;;;5012755;28;20541;-47
2024/01/09 00:38:35;;;;;;;21.45;12.40;;;-5.90;99.90;;;;;;5012081;28;20140;-46
2024/01/09 00:41:02;;;;;;;20.77;10.85;;;-5.90;99.90;;;;;;5012274;28;20057;-45
2024/01/09 00:43:29;;;;;;;22.77;11.93;;;-5.90;99.90;;;;;;5009740;28;20085;-44
2024/01/09 00:45:56;;;;;;;23.52;12.63;;;-5.90;99.90;;;;;;5010119;28;20042;-46
2024/01/09 00:48:23;;;;;;;22.33;11.75;;;-5.90;99.90;;;;;;5014160;28;20041;-47
2024/01/09 00:50:50;;;;;;;23.27;12.18;;;-5.90;99.90;;;;;;5010895;28;20507;-49
2024/01/09 00:53:18;;;;;;;18.88;11.88;;;-5.90;99.90;;;;;;5016581;28;20588;-47
2024/01/09 00:55:45;;;;;;;22.80;12.68;;;-5.80;99.90;;;;;;5014360;28;20123;-43
2024/01/09 00:58:12;;;;;;;21.90;12.27;;;-5.80;99.90;;;;;;5016241;28;20049;-45
2024/01/09 01:00:39;;;;;;;22.30;12.10;;;-5.90;99.90;;;;;;5018408;28;20146;-49
2024/01/09 01:03:06;;;;;;;22.45;13.05;;;-5.90;99.90;;;;;;5020936;28;20045;-48
2024/01/09 01:05:33;;;;;;;26.10;12.70;;;-5.90;99.90;;;;;;5013013;28;20148;-47
2024/01/09 01:08:00;;;;;;;29.77;12.27;;;-6.00;99.90;;;;;;5017608;28;20060;-49
2024/01/09 01:10:27;;;;;;;30.88;16.08;;;-6.00;99.90;;;;;;5015354;28;20125;-45
2024/01/09 01:12:54;;;;;;;21.60;11.88;;;-6.10;99.90;;;;;;5019457;28;20125;-45
2024/01/09 01:15:23;;;;;;;23.58;12.52;;;-6.10;99.90;;;;;;5016596;28;20049;-46
2024/01/09 01:17:50;;;;;;;19.50;11.85;;;-6.20;99.90;;;;;;5012119;28;20258;-48
2024/01/09 01:20:17;;;;;;;27.52;12.60;;;-6.20;99.90;;;;;;5017993;28;20053;-50
2024/01/09 01:22:44;;;;;;;21.85;12.57;;;-6.20;99.90;;;;;;5014460;28;20523;-46
2024/01/09 01:25:11;;;;;;;26.60;13.00;;;-6.20;99.90;;;;;;5015554;28;20050;-45
2024/01/09 01:27:38;;;;;;;23.08;11.98;;;-6.20;99.90;;;;;;5008081;28;20466;-44
2024/01/09 01:30:06;;;;;;;22.23;12.48;;;-6.20;99.90;;;;;;5019347;28;20111;-45
2024/01/09 01:32:33;;;;;;;23.88;12.77;;;-6.20;99.90;;;;;;5015842;28;20042;-49
2024/01/09 01:35:00;;;;;;;20.50;12.82;;;-6.20;99.90;;;;;;5014551;28;20046;-45
2024/01/09 01:37:28;;;;;;;23.20;12.32;;;-6.20;99.90;;;;;;5013872;28;20570;-48
2024/01/09 01:39:55;;;;;;;26.25;13.70;;;-6.10;99.90;;;;;;5017601;28;20092;-47
2024/01/09 01:42:22;;;;;;;22.25;12.23;;;-6.10;99.90;;;;;;5012480;28;20053;-46
2024/01/09 01:44:49;;;;;;;22.80;12.45;;;-6.10;99.90;;;;;;5012441;28;20589;-46
2024/01/09 01:47:18;;;;;;;20.75;12.57;;;-6.20;99.90;;;;;;5016672;28;20052;-45
2024/01/09 01:49:45;;;;;;;20.83;12.05;;;-6.20;99.90;;;;;;5013016;28;20508;-45
2024/01/09 01:52:12;;;;;;;24.25;13.48;;;-6.20;99.90;;;;;;5015234;28;20110;-43
2024/01/09 01:54:41;;;;;;;22.48;12.25;;;-6.20;99.90;;;;;;5011769;28;20312;-47
2024/01/09 01:57:09;;;;;;;22.38;13.07;;;-6.20;99.90;;;;;;5015873;28;20041;-47
2024/01/09 01:59:40;;;;;;;24.27;12.73;;;-6.20;99.90;;;;;;5013397;28;20133;-44
2024/01/09 02:02:07;;;;;;;24.58;12.43;;;-6.20;99.90;;;;;;5014317;28;20054;-45
2024/01/09 02:04:35;;;;;;;24.20;12.50;;;-6.20;99.90;;;;;;5012061;28;20040;-42
2024/01/09 02:07:02;;;;;;;23.42;13.00;;;-6.20;99.90;;;;;;5016065;28;20530;-46
2024/01/09 02:09:30;;;;;;;22.63;12.70;;;-6.20;99.90;;;;;;5012072;28;20053;-44
2024/01/09 02:11:58;;;;;;;21.92;12.15;;;-6.10;99.90;;;;;;5015164;28;20042;-47
2024/01/09 02:14:25;;;;;;;25.45;13.40;;;-6.10;99.90;;;;;;5014950;28;20056;-49
2024/01/09 02:16:52;;;;;;;22.88;12.88;;;-6.10;99.90;;;;;;5010943;28;20065;-48
2024/01/09 02:19:25;;;;;;;20.55;11.85;;;-6.00;99.90;;;;;;5013796;28;20411;-44
2024/01/09 02:21:52;;;;;;;21.30;12.52;;;-6.00;99.90;;;;;;5012520;28;20545;-46
2024/01/09 02:24:19;;;;;;;22.88;12.98;;;-6.00;99.90;;;;;;5015144;28;20056;-46
2024/01/09 02:27:12;;;;;;;23.13;12.13;;;-6.10;99.90;;;;;;5018155;28;20458;-45
2024/01/09 02:29:49;;;;;;;19.73;12.25;;;-6.10;99.90;;;;;;5008921;28;20034;-44
2024/01/09 02:32:19;;;;;;;24.08;13.43;;;-6.10;99.90;;;;;;5015222;28;20129;-43
2024/01/09 02:34:48;;;;;;;26.58;14.02;;;-6.10;99.90;;;;;;5015313;28;20455;-45
2024/01/09 02:37:15;;;;;;;24.60;13.73;;;-6.10;99.90;;;;;;5013501;28;20056;-47
2024/01/09 02:39:42;;;;;;;23.20;12.20;;;-6.10;99.90;;;;;;5016412;28;20490;-45
2024/01/09 02:42:09;;;;;;;23.65;12.65;;;-6.00;99.90;;;;;;5012999;28;20480;-45
2024/01/09 02:44:36;;;;;;;22.20;12.73;;;-6.10;99.90;;;;;;5014040;28;20049;-46
2024/01/09 02:47:03;;;;;;;24.45;12.35;;;-6.00;99.90;;;;;;5013597;28;20050;-45
2024/01/09 02:49:30;;;;;;;21.05;12.63;;;-6.00;99.90;;;;;;5011928;28;20062;-44
2024/01/09 02:51:57;;;;;;;22.73;13.02;;;-6.10;99.90;;;;;;5015001;28;20041;-46
2024/01/09 02:54:23;;;;;;;21.90;12.95;;;-6.10;99.90;;;;;;5012869;28;20038;-49
2024/01/09 02:56:51;;;;;;;24.85;13.65;;;-6.10;99.90;;;;;;5010886;28;20521;-49
2024/01/09 02:59:18;;;;;;;24.98;12.05;;;-6.10;99.90;;;;;;5013967;28;20052;-46
2024/01/09 03:01:45;;;;;;;25.63;12.65;;;-6.10;99.90;;;;;;5016946;28;20123;-51
2024/01/09 03:04:12;;;;;;;23.00;12.82;;;-6.10;99.90;;;;;;5004409;28;20132;-46
2024/01/09 03:06:39;;;;;;;22.52;12.90;;;-6.00;99.90;;;;;;5016130;28;20144;-45
2024/01/09 03:09:06;;;;;;;23.38;13.05;;;-6.00;99.90;;;;;;5013910;28;20045;-46
2024/01/09 03:11:32;;;;;;;25.00;12.77;;;-6.00;99.90;;;;;;5012082;28;20120;-47
2024/01/09 03:14:00;;;;;;;24.70;12.95;;;-6.00;99.90;;;;;;5015792;28;20140;-46
2024/01/09 03:16:27;;;;;;;22.17;12.75;;;-6.10;99.90;;;;;;5008876;28;20503;-47
2024/01/09 03:18:53;;;;;;;23.73;12.38;;;-6.00;99.90;;;;;;5015866;28;20049;-45
2024/01/09 03:21:21;;;;;;;20.48;11.75;;;-6.00;99.90;;;;;;5013873;28;20042;-45
2024/01/09 03:23:47;;;;;;;22.75;12.27;;;-6.10;99.90;;;;;;5013309;28;20530;-46
2024/01/09 03:26:15;;;;;;;19.80;11.68;;;-6.10;99.90;;;;;;5015014;28;20061;-45
2024/01/09 03:28:42;;;;;;;24.70;13.00;;;-6.20;99.90;;;;;;5011660;28;20669;-45
2024/01/09 03:31:18;;;;;;;26.98;13.18;;;-6.10;99.90;;;;;;5016787;28;20579;-49
2024/01/09 03:33:46;;;;;;;22.80;13.45;;;-6.10;99.90;;;;;;5017242;28;20049;-45
2024/01/09 03:36:13;;;;;;;21.58;12.07;;;-6.10;99.90;;;;;;5020158;28;20069;-47
2024/01/09 03:38:41;;;;;;;22.90;11.70;;;-6.10;99.90;;;;;;5016223;28;20111;-45
2024/01/09 03:41:08;;;;;;;23.48;12.07;;;-6.10;99.90;;;;;;5014693;28;20158;-48
2024/01/09 03:43:35;;;;;;;24.33;13.35;;;-6.10;99.90;;;;;;5011261;28;20046;-45
2024/01/09 03:46:02;;;;;;;22.88;12.32;;;-6.10;99.90;;;;;;5012934;28;20485;-45
2024/01/09 03:48:29;;;;;;;24.27;12.32;;;-6.10;99.90;;;;;;5014363;28;20045;-47
2024/01/09 03:50:56;;;;;;;22.02;12.38;;;-6.20;99.90;;;;;;5011567;28;20038;-45
2024/01/09 03:53:23;;;;;;;26.92;12.60;;;-6.20;99.90;;;;;;5015028;28;20046;-47
2024/01/09 03:55:50;;;;;;;22.50;13.38;;;-6.30;99.90;;;;;;5009757;28;20056;-46
2024/01/09 03:58:18;;;;;;;22.42;11.85;;;-6.20;99.90;;;;;;5016185;28;20057;-48
2024/01/09 04:00:45;;;;;;;25.60;12.30;;;-6.20;99.90;;;;;;5014897;28;20049;-45
2024/01/09 04:03:13;;;;;;;22.33;13.48;;;-6.20;99.90;;;;;;5006716;28;20131;-45
2024/01/09 04:05:39;;;;;;;22.20;11.95;;;-6.30;99.90;;;;;;5011758;28;20069;-45
2024/01/09 04:08:06;;;;;;;26.40;12.57;;;-6.30;99.90;;;;;;5014192;28;20474;-45
2024/01/09 04:10:33;;;;;;;21.40;11.88;;;-6.20;99.90;;;;;;5011779;28;20042;-46
2024/01/09 04:13:02;;;;;;;21.45;11.93;;;-6.20;99.90;;;;;;5013558;28;20073;-44
2024/01/09 04:15:29;;;;;;;22.15;11.88;;;-6.30;99.90;;;;;;5013006;28;20073;-47
2024/01/09 04:17:56;;;;;;;22.33;12.52;;;-6.20;99.90;;;;;;5009917;28;20345;-48
2024/01/09 04:20:23;;;;;;;21.25;11.85;;;-6.20;99.90;;;;;;5012224;28;20060;-48
2024/01/09 04:22:50;;;;;;;26.30;12.48;;;-6.20;99.90;;;;;;5007512;28;20095;-48
2024/01/09 04:25:17;;;;;;;21.10;11.88;;;-6.20;99.90;;;;;;5013343;28;20042;-46
2024/01/09 04:27:44;;;;;;;24.83;12.00;;;-6.30;99.90;;;;;;5013528;28;20042;-49
2024/01/09 04:30:12;;;;;;;23.25;12.05;;;-6.30;99.90;;;;;;5014630;28;20125;-44
2024/01/09 04:32:38;;;;;;;25.67;13.48;;;-6.30;99.90;;;;;;5013902;28;20042;-45
2024/01/09 04:35:06;;;;;;;25.20;13.40;;;-6.40;99.90;;;;;;5015394;28;20083;-46
2024/01/09 04:37:33;;;;;;;27.25;13.10;;;-6.40;99.90;;;;;;5012495;28;20041;-47
2024/01/09 04:40:00;;;;;;;26.08;13.98;;;-6.40;99.90;;;;;;5017463;28;20050;-46
2024/01/09 04:42:27;;;;;;;29.08;14.30;;;-6.40;99.90;;;;;;5011432;28;20812;-46
2024/01/09 04:44:54;;;;;;;25.85;12.57;;;-6.30;99.90;;;;;;5014529;28;20612;-46
2024/01/09 04:47:21;;;;;;;23.88;12.82;;;-6.30;99.90;;;;;;5016303;28;20049;-44
2024/01/09 04:49:48;;;;;;;28.27;13.30;;;-6.30;99.90;;;;;;5013608;28;20038;-45
2024/01/09 04:52:15;;;;;;;24.77;13.45;;;-6.30;99.90;;;;;;5014719;28;20049;-45
2024/01/09 04:54:42;;;;;;;23.17;13.45;;;-6.30;99.90;;;;;;5011045;28;20049;-45
2024/01/09 04:57:09;;;;;;;24.48;12.85;;;-6.30;99.90;;;;;;5009342;28;20057;-46
2024/01/09 04:59:36;;;;;;;24.35;12.32;;;-6.20;99.90;;;;;;5012932;28;20121;-46
2024/01/09 05:02:03;;;;;;;25.00;12.93;;;-6.20;99.90;;;;;;5012256;28;20431;-44
2024/01/09 05:04:31;;;;;;;23.42;12.25;;;-6.20;99.90;;;;;;5010601;28;20393;-45
2024/01/09 05:06:58;;;;;;;23.50;12.25;;;-6.20;99.90;;;;;;5015182;28;20042;-45
2024/01/09 05:09:25;;;;;;;22.15;12.15;;;-6.20;99.90;;;;;;5008815;28;20049;-46
2024/01/09 05:11:52;;;;;;;25.70;12.60;;;-6.20;99.90;;;;;;5012819;28;20611;-45
2024/01/09 05:14:19;;;;;;;27.70;12.32;;;-6.20;99.90;;;;;;5015312;28;20453;-45
2024/01/09 05:16:46;;;;;;;22.20;11.82;;;-6.20;99.90;;;;;;5013227;28;20112;-44
2024/01/09 05:19:13;;;;;;;20.95;12.20;;;-6.20;99.90;;;;;;5015210;28;20061;-44
2024/01/09 05:21:40;;;;;;;24.90;12.38;;;-6.20;99.90;;;;;;5013481;28;20046;-45
2024/01/09 05:24:07;;;;;;;23.90;12.60;;;-6.20;99.90;;;;;;5015372;28;20136;-45
2024/01/09 05:26:34;;;;;;;25.10;12.43;;;-6.20;99.90;;;;;;5014900;28;20038;-45
2024/01/09 05:29:01;;;;;;;20.00;12.43;;;-6.10;99.90;;;;;;5017382;28;20050;-47
2024/01/09 05:31:28;;;;;;;21.80;11.70;;;-6.10;99.90;;;;;;5013974;28;20146;-45
2024/01/09 05:33:55;;;;;;;21.17;12.20;;;-6.10;99.90;;;;;;5014586;28;20045;-45
2024/01/09 05:36:23;;;;;;;22.67;11.35;;;-6.10;99.90;;;;;;5013139;28;20160;-48
2024/01/09 05:38:53;;;;;;;23.35;12.63;;;-6.00;99.90;;;;;;5014295;28;20042;-46
2024/01/09 05:41:21;;;;;;;21.63;12.02;;;-6.00;99.90;;;;;;5015365;28;20328;-45
2024/01/09 05:43:49;;;;;;;20.42;12.07;;;-6.00;99.90;;;;;;5014548;28;20049;-46
2024/01/09 05:46:16;;;;;;;22.38;12.27;;;-5.90;99.90;;;;;;5017220;28;20045;-45
2024/01/09 05:48:44;;;;;;;31.83;11.93;;;-5.90;99.90;;;;;;5012557;28;20611;-48
2024/01/09 05:51:11;;;;;;;20.70;11.02;;;-5.90;99.90;;;;;;5014726;28;20576;-47
2024/01/09 05:53:38;;;;;;;22.35;12.15;;;-5.90;99.90;;;;;;5010520;28;20077;-45
2024/01/09 05:56:06;;;;;;;24.13;12.40;;;-5.90;99.90;;;;;;5014435;28;20790;-45
2024/01/09 05:58:33;;;;;;;20.63;12.25;;;-6.00;99.90;;;;;;5009671;28;20057;-45
2024/01/09 06:01:01;;;;;;;23.02;12.13;;;-6.00;99.90;;;;;;5013859;28;20061;-45
2024/01/09 06:03:28;;;;;;;22.15;12.65;;;-5.90;99.90;;;;;;5010250;28;20149;-47
2024/01/09 06:05:56;;;;;;;21.95;11.75;;;-5.90;99.90;;;;;;5011056;28;20064;-45
2024/01/09 06:08:24;;;;;;;26.35;13.40;;;-5.90;99.90;;;;;;5013979;28;20100;-51
2024/01/09 06:10:51;;;;;;;20.17;11.98;;;-6.00;99.90;;;;;;5012646;28;20053;-45
2024/01/09 06:13:18;;;;;;;26.75;12.50;;;-6.00;99.90;;;;;;5014528;28;20121;-46
2024/01/09 06:15:45;;;;;;;21.73;12.38;;;-6.10;99.90;;;;;;5015887;28;20057;-47
2024/01/09 06:18:12;;;;;;;23.77;11.77;;;-6.10;99.90;;;;;;5014705;28;20120;-46
2024/01/09 06:20:39;;;;;;;21.08;12.23;;;-6.10;99.90;;;;;;5014161;28;20596;-47
2024/01/09 06:23:06;;;;;;;21.27;11.52;;;-6.10;99.90;;;;;;5012685;28;20430;-49
2024/01/09 06:25:33;;;;;;;22.42;11.95;;;-6.00;99.90;;;;;;5013704;28;20054;-45
2024/01/09 06:28:00;;;;;;;23.33;11.48;;;-6.00;99.90;;;;;;5012364;28;20467;-46
2024/01/09 06:30:27;;;;;;;20.55;11.10;;;-6.10;99.90;;;;;;5015254;28;20041;-46
2024/01/09 06:32:54;;;;;;;23.80;11.93;;;-6.10;99.90;;;;;;5008737;28;20038;-47
2024/01/09 06:35:21;;;;;;;19.40;12.00;;;-6.10;99.90;;;;;;5010505;28;20418;-45
2024/01/09 06:37:48;;;;;;;20.75;11.73;;;-6.10;99.90;;;;;;5009687;28;20038;-47
2024/01/09 06:40:19;;;;;;;19.95;12.02;;;-6.10;99.90;;;;;;5016365;28;20029;-46
2024/01/09 06:42:47;;;;;;;23.23;12.10;;;-6.00;99.90;;;;;;5007716;28;20368;-47
2024/01/09 06:45:14;;;;;;;19.52;11.60;;;-6.10;99.90;;;;;;5014932;28;20424;-46
2024/01/09 06:47:42;;;;;;;21.67;12.43;;;-6.00;99.90;;;;;;5009926;28;20042;-45
2024/01/09 06:50:09;;;;;;;24.17;12.30;;;-6.00;99.90;;;;;;5012294;28;20050;-47
2024/01/09 06:52:56;;;;;;;25.77;13.50;;;-6.00;99.90;;;;;;5013053;28;20049;-46
2024/01/09 06:55:23;;;;;;;21.15;12.27;;;-5.90;99.90;;;;;;5012354;28;20554;-44
2024/01/09 06:57:50;;;;;;;23.92;12.20;;;-5.90;99.90;;;;;;5008050;28;20042;-47
2024/01/09 07:00:18;;;;;;;22.98;12.18;;;-5.90;99.90;;;;;;5013450;28;20502;-49
2024/01/09 07:02:46;;;;;;;21.15;11.68;;;-5.90;99.90;;;;;;5012925;28;20076;-46
2024/01/09 07:05:13;;;;;;;23.92;12.32;;;-5.90;99.90;;;;;;5005880;28;20116;-47
2024/01/09 07:07:40;;;;;;;23.55;11.68;;;-5.90;99.90;;;;;;5013498;28;20069;-45
2024/01/09 07:10:22;;;;;;;23.63;13.05;;;-5.90;99.90;;;;;;5061256;27;1220547;-48
2024/01/09 07:12:49;;;;;;;24.75;13.00;;;-5.90;99.90;;;;;;5083328;28;20471;-47
2024/01/09 07:15:16;;;;;;;23.27;11.68;;;-5.90;99.90;;;;;;5097656;28;20127;-44
2024/01/09 07:17:46;;;;;;;22.75;12.88;;;-6.00;99.90;;;;;;5101900;28;20362;-49
2024/01/09 07:20:14;;;;;;;25.15;12.20;;;-6.00;99.90;;;;;;5094222;28;20132;-45
2024/01/09 07:22:41;;;;;;;27.30;13.05;;;-6.00;99.90;;;;;;5096024;28;20051;-46
2024/01/09 07:25:14;;;;;;;;;;;-6.00;99.90;;;;;;5100238;28;20071;-44
2024/01/09 07:27:41;;;;;;;22.05;11.25;;;-5.90;99.90;;;;;;5095551;28;19924;-47
2024/01/09 07:30:08;;;;;;;22.35;11.48;;;-5.90;99.90;;;;;;5100680;28;20116;-46
2024/01/09 07:32:36;;;;;;;22.77;12.00;;;-5.90;99.90;;;;;;5102559;28;20122;-47
2024/01/09 07:35:04;;;;;;;20.90;11.80;;;-5.80;99.90;;;;;;5103417;28;20308;-48
2024/01/09 07:37:32;;;;;;;22.70;12.13;;;-5.80;99.90;;;;;;5097819;28;20500;-46
2024/01/09 07:39:59;;;;;;;24.13;12.05;;;-5.70;99.90;;;;;;5102488;28;20074;-44
2024/01/09 07:42:26;;;;;;;21.33;11.57;;;-5.60;99.90;;;;;;5099634;28;20055;-46
2024/01/09 07:44:54;;;;;;;26.15;11.27;;;-5.60;99.90;;;;;;5103423;28;20040;-48
2024/01/09 07:47:21;;;;;;;22.48;11.65;;;-5.60;99.90;;;;;;5105285;28;20067;-47
2024/01/09 07:49:48;;;;;;;19.88;11.73;;;-5.50;99.90;;;;;;5103885;28;20032;-43
2024/01/09 07:52:15;;;;;;;18.48;10.60;;;-5.40;99.90;;;;;;5103144;28;20105;-49
2024/01/09 07:54:42;;;;;;;23.70;12.30;;;-5.30;99.90;;;;;;5100814;28;20420;-46
2024/01/09 07:57:09;;;;;;;20.38;10.82;;;-5.20;99.90;;;;;;5100924;28;20059;-46
2024/01/09 07:59:48;;;;;;;21.08;11.23;;;-5.10;99.90;;;;;;5084368;28;20184;-47
2024/01/09 08:02:16;;;;;;;22.42;10.88;;;-5.00;99.90;;;;;;5102341;28;20413;-45
2024/01/09 08:04:43;;;;;;;25.52;11.73;;;-5.00;99.90;;;;;;5100775;28;20071;-44
2024/01/09 08:07:10;;;;;;;26.60;12.48;;;-4.90;99.90;;;;;;5102743;28;20539;-46
2024/01/09 08:09:37;;;;;;;27.48;11.95;;;-4.90;99.90;;;;;;5101505;28;20036;-45
2024/01/09 08:12:04;;;;;;;21.67;11.98;;;-4.80;99.90;;;;;;5102448;28;20071;-46
2024/01/09 08:14:31;;;;;;;24.42;11.30;;;-4.70;99.90;;;;;;5098671;28;20068;-43
2024/01/09 08:16:58;;;;;;;22.10;11.13;;;-4.70;99.90;;;;;;5099207;28;20127;-45
2024/01/09 08:19:25;;;;;;;18.17;11.75;;;-4.60;99.90;;;;;;5104163;28;20050;-49
2024/01/09 08:21:53;;;;;;;19.65;10.95;;;-4.60;99.90;;;;;;5090694;28;20046;-45
2024/01/09 08:24:21;;;;;;;28.13;12.02;;;-4.50;99.90;;;;;;5089174;28;20054;-45
2024/01/09 08:26:48;;;;;;;21.60;10.35;;;-4.50;99.90;;;;;;5088071;28;20128;-46
2024/01/09 08:29:16;;;;;;;22.27;11.43;;;-4.40;99.90;;;;;;5088119;28;20356;-48
2024/01/09 08:31:48;;;;;;;19.50;11.27;;;-4.40;99.90;;;;;;5088578;28;20360;-51
2024/01/09 08:34:16;;;;;;;;;;;-4.30;99.90;;;;;;5088273;28;20040;-47
2024/01/09 08:36:45;;;;;;;19.08;11.05;;;-4.20;99.90;;;;;;5086438;28;19920;-46
2024/01/09 08:39:14;;;;;;;30.17;12.35;;;-4.20;99.90;;;;;;5088894;28;20405;-46
2024/01/09 08:41:42;;;;;;;19.33;11.57;;;-4.10;99.90;;;;;;5085339;28;20051;-49
2024/01/09 08:44:09;;;;;;;21.92;11.50;;;-4.10;99.90;;;;;;5069703;28;20093;-45
2024/01/09 08:46:36;;;;;;;21.20;12.10;;;-4.10;99.90;;;;;;5088336;28;20067;-43
2024/01/09 08:49:03;;;;;;;20.58;12.02;;;-4.00;99.90;;;;;;5085441;28;20036;-45
2024/01/09 08:51:30;;;;;;;16.65;10.80;;;-3.90;99.90;;;;;;5088533;28;20036;-45
2024/01/09 08:53:58;;;;;;;19.63;11.27;;;-3.90;99.90;;;;;;5085018;28;20525;-45
2024/01/09 08:56:25;;;;;;;23.48;11.82;;;-3.90;99.90;;;;;;5087979;28;20063;-45
2024/01/09 08:58:52;;;;;;;22.58;11.35;;;-3.80;99.90;;;;;;5086964;28;20070;-47
2024/01/09 09:01:22;;;;;;;19.77;11.57;;;-3.70;99.90;;;;;;5070340;28;20365;-45
2024/01/09 09:03:49;;;;;;;21.73;11.15;;;-3.60;99.90;;;;;;5088191;28;20036;-46
2024/01/09 09:06:16;;;;;;;23.50;11.35;;;-3.50;99.90;;;;;;5068964;28;20060;-46
2024/01/09 09:08:44;;;;;;;19.35;11.82;;;-3.20;99.90;;;;;;5086788;28;20473;-47
2024/01/09 09:11:16;;;;;;;19.55;11.13;;;-3.20;99.90;;;;;;5087022;28;20068;-46
2024/01/09 09:13:44;;;;;;;21.58;12.13;;;-3.10;99.90;;;;;;5086903;28;20046;-46
2024/01/09 09:16:12;;;;;;;20.52;12.07;;;-3.10;99.90;;;;;;5084882;28;20040;-48
2024/01/09 09:18:40;;;;;;;20.15;11.85;;;-3.00;99.90;;;;;;5085486;28;20044;-46
2024/01/09 09:21:07;;;;;;;20.95;11.63;;;-3.00;99.90;;;;;;5086809;28;20056;-45
2024/01/09 09:23:34;;;;;;;22.25;12.05;;;-2.90;99.90;;;;;;5083836;28;20040;-45
2024/01/09 09:26:01;;;;;;;19.88;11.38;;;-2.80;99.90;;;;;;5085367;28;20130;-46
2024/01/09 09:28:28;;;;;;;20.52;11.85;;;-2.80;99.90;;;;;;5083750;28;20051;-47
2024/01/09 09:31:11;;;;;;;21.80;10.95;;;-2.80;99.90;;;;;;5085122;28;20142;-46
2024/01/09 09:33:41;;;;;;;18.90;11.23;;;-2.60;99.90;;;;;;5085051;28;20040;-48
2024/01/09 09:36:09;;;;;;;20.00;11.35;;;-2.60;99.90;;;;;;5082983;28;20032;-48
2024/01/09 09:38:36;;;;;;;20.73;12.02;;;-2.50;99.90;;;;;;5079587;28;20083;-47
2024/01/09 09:41:05;;;;;;;19.08;10.82;;;-2.40;99.90;;;;;;5082357;28;20044;-48
2024/01/09 09:43:36;;;;;;;19.75;11.77;;;-2.40;99.90;;;;;;5083002;28;20138;-47
2024/01/09 09:46:06;;;;;;;18.83;11.27;;;-2.30;99.90;;;;;;5066974;28;20595;-47
2024/01/09 09:48:36;;;;;;;20.92;11.65;;;-2.20;99.90;;;;;;5066476;28;20064;-47
2024/01/09 09:51:04;;;;;;;17.45;10.25;;;-2.10;99.90;;;;;;5084959;28;20764;-46
2024/01/09 09:53:32;;;;;;;19.77;11.70;;;-2.00;99.90;;;;;;5082382;28;20439;-46
2024/01/09 09:55:59;;;;;;;18.83;10.98;;;-1.80;99.90;;;;;;5086216;28;20093;-44
2024/01/09 09:58:27;;;;;;;20.70;11.20;;;-1.70;99.90;;;;;;5084951;28;20405;-47
2024/01/09 10:00:57;;;;;;;17.33;11.18;;;-1.60;99.90;;;;;;5085426;28;20040;-47
2024/01/09 10:03:31;;;;;;;20.38;11.05;;;-1.50;99.90;;;;;;5083324;28;20564;-47
2024/01/09 10:06:04;;;;;;;20.27;11.05;;;-1.40;99.90;;;;;;5082945;28;20032;-46
2024/01/09 10:08:33;;;;;;;18.08;11.88;;;-1.30;99.90;;;;;;5083978;28;20467;-46
2024/01/09 10:11:01;;;;;;;22.30;11.55;;;-1.20;99.90;;;;;;5085349;28;20047;-47
2024/01/09 10:13:28;;;;;;;17.50;11.40;;;-1.00;99.90;;;;;;5083665;28;20287;-47
2024/01/09 10:15:59;;;;;;;19.85;11.38;;;-0.90;99.90;;;;;;5081545;28;20067;-49
2024/01/09 10:18:29;;;;;;;16.73;11.02;;;-0.90;99.70;;;;;;5081417;28;20044;-43
2024/01/09 10:20:59;;;;;;;16.00;10.93;;;-0.70;99.40;;;;;;5084031;28;20047;-47
2024/01/09 10:23:29;;;;;;;19.88;12.68;;;-0.70;98.60;;;;;;5081020;28;20162;-46
2024/01/09 10:25:56;;;;;;;16.35;10.73;;;-0.60;97.70;;;;;;5084514;28;20040;-46
2024/01/09 10:28:23;;;;;;;17.48;11.02;;;-0.50;97.20;;;;;;5082867;28;20052;-46
2024/01/09 10:30:52;;;;;;;17.92;10.55;;;-0.40;96.80;;;;;;5082338;28;20508;-46
2024/01/09 10:33:20;;;;;;;14.40;10.50;;;-0.40;95.20;;;;;;5082745;28;20051;-48
2024/01/09 10:35:47;;;;;;;16.80;10.13;;;-0.30;95.20;;;;;;5083320;28;20159;-48
2024/01/09 10:38:23;;;;;;;16.75;9.68;;;-0.10;94.80;;;;;;5079308;28;20093;-47
2024/01/09 10:40:55;;;;;;;16.48;10.20;;;0.00;94.00;;;;;;5084787;28;20055;-48
2024/01/09 10:43:26;;;;;;;17.70;11.55;;;0.00;92.70;;;;;;5080217;28;20376;-47
2024/01/09 10:45:54;;;;;;;22.65;10.40;;;0.10;92.30;;;;;;5082514;28;20044;-47
2024/01/09 10:48:21;;;;;;;17.35;11.25;;;0.20;91.90;;;;;;5082259;28;20044;-47
2024/01/09 10:50:53;;;;;;;19.55;11.10;;;0.40;91.40;;;;;;5084703;28;20512;-49
2024/01/09 10:53:26;;;;;;;15.40;10.13;;;0.50;91.30;;;;;;5083705;28;20067;-48
2024/01/09 10:55:54;;;;;;;16.10;10.50;;;0.80;90.50;;;;;;5084045;28;20032;-47
2024/01/09 10:58:23;;;;;;;15.95;9.52;;;1.00;89.80;;;;;;5081632;28;20043;-47
2024/01/09 11:00:52;;;;;;;18.33;10.00;;;1.10;89.40;;;;;;5082584;28;20143;-45
2024/01/09 11:03:19;;;;;;;17.95;10.13;;;1.50;89.00;;;;;;5082669;28;20051;-48
2024/01/09 11:05:52;;;;;;;13.60;9.88;;;1.60;86.10;;;;;;5082222;28;20052;-47
2024/01/09 11:08:20;;;;;;;17.85;10.40;;;1.80;87.50;;;;;;5084834;28;20051;-47
2024/01/09 11:10:48;;;;;;;14.85;10.15;;;2.10;84.90;;;;;;5081356;28;20093;-45
2024/01/09 11:13:17;;;;;;;14.15;10.00;;;2.50;83.20;;;;;;5084724;28;20067;-48
2024/01/09 11:15:47;;;;;;;16.05;9.93;;;2.60;81.60;;;;;;5084129;28;20075;-49
2024/01/09 11:18:16;;;;;;;14.52;9.93;;;2.60;81.20;;;;;;5082095;28;20052;-48
2024/01/09 11:20:44;;;;;;;15.43;10.00;;;2.90;79.30;;;;;;5081952;28;20044;-49
2024/01/09 11:23:11;;;;;;;13.95;9.32;;;3.10;78.10;;;;;;5078886;28;20047;-48
2024/01/09 11:25:38;;;;;;;17.17;10.00;;;3.20;76.90;;;;;;5082333;28;20640;-50
2024/01/09 11:28:07;;;;;;;14.38;9.50;;;3.50;75.80;;;;;;5081820;28;20085;-46
2024/01/09 11:30:34;;;;;;;14.38;10.05;;;3.50;74.10;;;;;;5085414;28;20040;-52
2024/01/09 11:33:41;;;;;;;14.60;10.20;;;3.60;73.40;;;;;;5083105;28;20581;-48
2024/01/09 11:36:11;;;;;;;14.85;9.73;;;4.00;73.30;;;;;;5036493;28;20044;-51
2024/01/09 11:38:38;;;;;;;14.40;10.45;;;4.00;72.40;;;;;;5084018;28;20116;-47
2024/01/09 11:41:09;;;;;;;14.10;9.70;;;4.20;72.60;;;;;;5086092;28;20055;-49
2024/01/09 11:44:02;;;;;;;12.98;9.82;;;4.60;71.30;;;;;;5081621;28;20543;-47
2024/01/09 11:46:35;;;;;;;14.98;10.50;;;5.10;70.00;;;;;;5080808;28;20135;-51
2024/01/09 11:49:04;;;;;;;14.10;10.20;;;5.30;68.80;;;;;;5082456;28;20093;-47
2024/01/09 11:51:33;;;;;;;14.57;9.73;;;5.20;67.50;;;;;;5083554;28;20044;-51
2024/01/09 11:54:02;;;;;;;12.07;9.32;;;5.20;68.40;;;;;;5078899;28;20332;-50
2024/01/09 11:56:29;;;;;;;14.85;10.05;;;5.40;67.70;;;;;;5085771;28;20039;-49
2024/01/09 11:58:57;;;;;;;15.98;10.45;;;5.70;67.90;;;;;;5085576;28;20472;-47
2024/01/09 12:01:24;;;;;;;14.65;10.50;;;5.90;66.20;;;;;;5080972;28;20126;-48
2024/01/09 12:03:53;;;;;;;15.57;10.40;;;6.10;65.90;;;;;;5084624;28;20042;-47
2024/01/09 12:06:22;;;;;;;17.17;10.07;;;6.50;64.40;;;;;;5086811;28;20056;-47
2024/01/09 12:08:50;;;;;;;15.25;9.30;;;6.20;62.60;;;;;;5086376;28;20153;-47
2024/01/09 12:11:18;;;;;;;16.20;10.43;;;6.40;62.30;;;;;;5087485;28;20032;-48
2024/01/09 12:13:45;;;;;;;13.95;9.77;;;6.80;63.40;;;;;;5088575;28;20074;-48
2024/01/09 12:16:21;;;;;;;13.65;9.82;;;7.20;60.80;;;;;;5085149;28;20044;-46
2024/01/09 12:18:56;;;;;;;15.27;10.35;;;7.10;59.80;;;;;;5086049;28;20058;-48
2024/01/09 12:21:26;;;;;;;16.80;10.90;;;6.80;58.70;;;;;;5085844;28;20089;-49
2024/01/09 12:23:55;;;;;;;14.88;11.00;;;6.50;60.50;;;;;;5086617;28;20071;-46
2024/01/09 12:26:44;;;;;;;14.65;9.63;;;6.80;60.40;;;;;;5082231;28;20501;-49
2024/01/09 12:29:12;;;;;;;12.95;9.65;;;6.60;60.20;;;;;;5083437;28;20105;-47
2024/01/09 12:31:39;;;;;;;14.02;9.38;;;6.80;60.20;;;;;;5085519;28;20048;-44
2024/01/09 12:34:06;;;;;;;14.88;10.45;;;6.70;59.90;;;;;;5085050;28;20039;-47
2024/01/09 12:36:34;;;;;;;12.68;9.65;;;7.00;59.70;;;;;;5079493;28;20044;-46